Orange8 — JL6278 — position and weather

sailwx.info

Track history (hours):
 
Tides and Currents Weather Stations Pressure Air Temp Water Temp Dewpoint Dewpoint Depression Visibility Wind Speed Wind Dir Waves Ship Positions

Orange8

Last reported at 2015-Jul-28 14:33 UTC. Time now 2015-Jul-29 11:29 UTC.
Position N 34°37' E 134°57'.

Length 164 m; draft 5 m.

Type: Passenger vessel. MMSI: 431501603.

Date/timePositionNaut miles runAvg speedWind from/ knotsBaromVisibWave heightAir tempDewpointWater temp
2015-Jul-28 14:33N 34°37' E 134°57'1817.9
2015-Jul-28 13:33N 34°37' E 135°19'6 5.5
2015-Jul-28 12:32N 34°37' E 135°26'0 0.0
2015-Jul-28 11:32N 34°37' E 135°26'0 0.0
2015-Jul-28 10:20N 34°37' E 135°26'0 0.0
2015-Jul-28 09:32N 34°37' E 135°26'0 0.0
2015-Jul-28 08:32N 34°37' E 135°26'0 0.0
2015-Jul-28 07:32N 34°37' E 135°26'0 0.0
2015-Jul-28 06:26N 34°37' E 135°26'0 0.0
2015-Jul-28 05:32N 34°37' E 135°26'0 0.0
2015-Jul-28 04:32N 34°37' E 135°26'0 0.0
2015-Jul-28 03:32N 34°37' E 135°26'0 0.0
2015-Jul-28 02:32N 34°37' E 135°26'0 0.0
2015-Jul-28 01:32N 34°37' E 135°26'0 0.0
2015-Jul-28 00:20N 34°37' E 135°26'0 0.0
2015-Jul-27 23:32N 34°37' E 135°26'0 0.0
2015-Jul-27 22:32N 34°37' E 135°26'0 0.0
2015-Jul-27 21:32N 34°37' E 135°26'4 4.6
2015-Jul-27 20:33N 34°36' E 135°21'1716.9
2015-Jul-27 19:33N 34°37' E 135°00'14 0.5
2015-Jul-26 15:10N 34°32' E 134°44'1118.5
2015-Jul-26 14:33N 34°37' E 134°57'1818.0
2015-Jul-26 13:33N 34°37' E 135°19'6 5.7
2015-Jul-26 12:30N 34°37' E 135°26'0 0.0
2015-Jul-26 11:30N 34°37' E 135°26'0 0.0
2015-Jul-26 10:12N 34°37' E 135°26'0 0.0
2015-Jul-26 09:30N 34°37' E 135°26'0 0.0
2015-Jul-26 08:12N 34°37' E 135°26'0 0.0
2015-Jul-26 07:30N 34°37' E 135°26'0 0.0
2015-Jul-26 06:30N 34°37' E 135°26'0 0.0
2015-Jul-26 05:30N 34°37' E 135°26'0 0.0
2015-Jul-26 04:24N 34°37' E 135°26'0 0.0
2015-Jul-26 03:30N 34°37' E 135°26'0 0.0
2015-Jul-26 02:18N 34°37' E 135°26'0 0.0
2015-Jul-26 01:30N 34°37' E 135°26'0 0.0
2015-Jul-26 00:30N 34°37' E 135°26'0 0.0
2015-Jul-25 23:30N 34°37' E 135°26'0 0.0
2015-Jul-25 22:30N 34°37' E 135°26'0 0.0
2015-Jul-25 21:30N 34°37' E 135°26'5 5.1
2015-Jul-25 20:33N 34°36' E 135°20'1817.8
2015-Jul-25 19:33N 34°37' E 134°59'12 0.4
2015-Jul-24 15:09N 34°33' E 134°45'1118.6
2015-Jul-24 14:33N 34°37' E 134°58'1817.5
2015-Jul-24 13:33N 34°37' E 135°19'6 5.5
2015-Jul-24 12:33N 34°37' E 135°26'0 0.0
2015-Jul-24 11:27N 34°37' E 135°26'0 0.0
2015-Jul-24 10:27N 34°37' E 135°26'0 0.0
2015-Jul-24 09:27N 34°37' E 135°26'0 0.0
2015-Jul-24 08:33N 34°37' E 135°26'0 0.0
2015-Jul-24 07:27N 34°37' E 135°26'0 0.0
2015-Jul-24 06:33N 34°37' E 135°26'0 0.0
2015-Jul-24 05:33N 34°37' E 135°26'0 0.0
2015-Jul-24 04:33N 34°37' E 135°26'0 0.0
2015-Jul-24 03:33N 34°37' E 135°26'0 0.0
2015-Jul-24 02:27N 34°37' E 135°26'0 0.0
2015-Jul-24 01:33N 34°37' E 135°26'0 0.0
2015-Jul-24 00:33N 34°37' E 135°26'0 0.0
2015-Jul-23 23:33N 34°37' E 135°26'0 0.0
2015-Jul-23 22:33N 34°37' E 135°26'0 0.0
2015-Jul-23 21:33N 34°37' E 135°26'6 6.2
2015-Jul-23 20:33N 34°35' E 135°19'1817.6
2015-Jul-23 19:33N 34°37' E 134°57'1 0.0
2015-Jul-22 14:33N 34°37' E 134°57'1918.5
2015-Jul-22 13:33N 34°37' E 135°19'5 4.5
2015-Jul-22 12:22N 34°37' E 135°26'0 0.0
2015-Jul-22 11:34N 34°37' E 135°26'0 0.0
2015-Jul-22 10:28N 34°37' E 135°26'0 0.0
2015-Jul-22 09:28N 34°37' E 135°26'0 0.0
2015-Jul-22 08:33N 34°37' E 135°26'0 0.0
2015-Jul-22 07:28N 34°37' E 135°26'0 0.0
2015-Jul-22 06:28N 34°37' E 135°26'0 0.0
2015-Jul-22 05:34N 34°37' E 135°26'0 0.0
2015-Jul-22 04:22N 34°37' E 135°26'0 0.0
2015-Jul-22 03:22N 34°37' E 135°26'0 0.0
2015-Jul-22 02:34N 34°37' E 135°26'0 0.0
2015-Jul-22 01:28N 34°37' E 135°26'0 0.0
2015-Jul-22 00:34N 34°37' E 135°26'0 0.0
2015-Jul-21 23:34N 34°37' E 135°26'0 0.0
2015-Jul-21 22:28N 34°37' E 135°26'0 0.0
2015-Jul-21 21:28N 34°37' E 135°26'5 6.0
2015-Jul-21 20:33N 34°36' E 135°19'1817.6
2015-Jul-21 19:33N 34°37' E 134°58'2 0.1
2015-Jul-20 14:33N 34°36' E 134°56'1919.2
2015-Jul-20 13:33N 34°36' E 135°19'6 5.7
2015-Jul-20 12:32N 34°37' E 135°26'0 0.0
2015-Jul-20 11:32N 34°37' E 135°26'0 0.0
2015-Jul-20 10:32N 34°37' E 135°26'0 0.0
2015-Jul-20 09:32N 34°37' E 135°26'0 0.0
2015-Jul-20 08:32N 34°37' E 135°26'0 0.0
2015-Jul-20 07:32N 34°37' E 135°26'0 0.0
2015-Jul-20 06:32N 34°37' E 135°26'0 0.0
2015-Jul-20 05:32N 34°37' E 135°26'0 0.0
2015-Jul-20 04:26N 34°37' E 135°26'0 0.0
2015-Jul-20 03:32N 34°37' E 135°26'0 0.0
2015-Jul-20 02:32N 34°37' E 135°26'0 0.0
2015-Jul-20 01:32N 34°37' E 135°26'0 0.0
2015-Jul-20 00:32N 34°37' E 135°26'0 0.0
2015-Jul-19 23:26N 34°37' E 135°26'0 0.0
2015-Jul-19 22:32N 34°37' E 135°26'0 0.0
2015-Jul-19 21:32N 34°37' E 135°26'5 5.0
2015-Jul-19 20:33N 34°36' E 135°20'1818.1
2015-Jul-19 19:33N 34°37' E 134°58'8516.9
2015-Jul-19 14:33N 34°07' E 133°22'83 3.5
2015-Jul-18 14:33N 34°37' E 134°56'  
Track history (hours):
 
Tides and Currents Weather Stations Pressure Air Temp Water Temp Dewpoint Dewpoint Depression Visibility Wind Speed Wind Dir Waves Ship Positions

Orange8

Last reported at 2015-Jul-28 14:33 UTC. Time now 2015-Jul-29 11:29 UTC.
Position N 34°37' E 134°57'.

Length 164 m; draft 5 m.

Type: Passenger vessel. MMSI: 431501603.

Date/timePositionNaut miles runAvg speedWind from/ knotsBaromVisibWave heightAir tempDewpointWater temp
2015-Jul-28 14:33N 34°37' E 134°57'1817.9
2015-Jul-28 13:33N 34°37' E 135°19'6 5.5
2015-Jul-28 12:32N 34°37' E 135°26'0 0.0
2015-Jul-28 11:32N 34°37' E 135°26'0 0.0
2015-Jul-28 10:20N 34°37' E 135°26'0 0.0
2015-Jul-28 09:32N 34°37' E 135°26'0 0.0
2015-Jul-28 08:32N 34°37' E 135°26'0 0.0
2015-Jul-28 07:32N 34°37' E 135°26'0 0.0
2015-Jul-28 06:26N 34°37' E 135°26'0 0.0
2015-Jul-28 05:32N 34°37' E 135°26'0 0.0
2015-Jul-28 04:32N 34°37' E 135°26'0 0.0
2015-Jul-28 03:32N 34°37' E 135°26'0 0.0
2015-Jul-28 02:32N 34°37' E 135°26'0 0.0
2015-Jul-28 01:32N 34°37' E 135°26'0 0.0
2015-Jul-28 00:20N 34°37' E 135°26'0 0.0
2015-Jul-27 23:32N 34°37' E 135°26'0 0.0
2015-Jul-27 22:32N 34°37' E 135°26'0 0.0
2015-Jul-27 21:32N 34°37' E 135°26'4 4.6
2015-Jul-27 20:33N 34°36' E 135°21'1716.9
2015-Jul-27 19:33N 34°37' E 135°00'14 0.5
2015-Jul-26 15:10N 34°32' E 134°44'1118.5
2015-Jul-26 14:33N 34°37' E 134°57'1818.0
2015-Jul-26 13:33N 34°37' E 135°19'6 5.7
2015-Jul-26 12:30N 34°37' E 135°26'0 0.0
2015-Jul-26 11:30N 34°37' E 135°26'0 0.0
2015-Jul-26 10:12N 34°37' E 135°26'0 0.0
2015-Jul-26 09:30N 34°37' E 135°26'0 0.0
2015-Jul-26 08:12N 34°37' E 135°26'0 0.0
2015-Jul-26 07:30N 34°37' E 135°26'0 0.0
2015-Jul-26 06:30N 34°37' E 135°26'0 0.0
2015-Jul-26 05:30N 34°37' E 135°26'0 0.0
2015-Jul-26 04:24N 34°37' E 135°26'0 0.0
2015-Jul-26 03:30N 34°37' E 135°26'0 0.0
2015-Jul-26 02:18N 34°37' E 135°26'0 0.0
2015-Jul-26 01:30N 34°37' E 135°26'0 0.0
2015-Jul-26 00:30N 34°37' E 135°26'0 0.0
2015-Jul-25 23:30N 34°37' E 135°26'0 0.0
2015-Jul-25 22:30N 34°37' E 135°26'0 0.0
2015-Jul-25 21:30N 34°37' E 135°26'5 5.1
2015-Jul-25 20:33N 34°36' E 135°20'1817.8
2015-Jul-25 19:33N 34°37' E 134°59'12 0.4
2015-Jul-24 15:09N 34°33' E 134°45'1118.6
2015-Jul-24 14:33N 34°37' E 134°58'1817.5
2015-Jul-24 13:33N 34°37' E 135°19'6 5.5
2015-Jul-24 12:33N 34°37' E 135°26'0 0.0
2015-Jul-24 11:27N 34°37' E 135°26'0 0.0
2015-Jul-24 10:27N 34°37' E 135°26'0 0.0
2015-Jul-24 09:27N 34°37' E 135°26'0 0.0
2015-Jul-24 08:33N 34°37' E 135°26'0 0.0
2015-Jul-24 07:27N 34°37' E 135°26'0 0.0
2015-Jul-24 06:33N 34°37' E 135°26'0 0.0
2015-Jul-24 05:33N 34°37' E 135°26'0 0.0
2015-Jul-24 04:33N 34°37' E 135°26'0 0.0
2015-Jul-24 03:33N 34°37' E 135°26'0 0.0
2015-Jul-24 02:27N 34°37' E 135°26'0 0.0
2015-Jul-24 01:33N 34°37' E 135°26'0 0.0
2015-Jul-24 00:33N 34°37' E 135°26'0 0.0
2015-Jul-23 23:33N 34°37' E 135°26'0 0.0
2015-Jul-23 22:33N 34°37' E 135°26'0 0.0
2015-Jul-23 21:33N 34°37' E 135°26'6 6.2
2015-Jul-23 20:33N 34°35' E 135°19'1817.6
2015-Jul-23 19:33N 34°37' E 134°57'1 0.0
2015-Jul-22 14:33N 34°37' E 134°57'1918.5
2015-Jul-22 13:33N 34°37' E 135°19'5 4.5
2015-Jul-22 12:22N 34°37' E 135°26'0 0.0
2015-Jul-22 11:34N 34°37' E 135°26'0 0.0
2015-Jul-22 10:28N 34°37' E 135°26'0 0.0
2015-Jul-22 09:28N 34°37' E 135°26'0 0.0
2015-Jul-22 08:33N 34°37' E 135°26'0 0.0
2015-Jul-22 07:28N 34°37' E 135°26'0 0.0
2015-Jul-22 06:28N 34°37' E 135°26'0 0.0
2015-Jul-22 05:34N 34°37' E 135°26'0 0.0
2015-Jul-22 04:22N 34°37' E 135°26'0 0.0
2015-Jul-22 03:22N 34°37' E 135°26'0 0.0
2015-Jul-22 02:34N 34°37' E 135°26'0 0.0
2015-Jul-22 01:28N 34°37' E 135°26'0 0.0
2015-Jul-22 00:34N 34°37' E 135°26'0 0.0
2015-Jul-21 23:34N 34°37' E 135°26'0 0.0
2015-Jul-21 22:28N 34°37' E 135°26'0 0.0
2015-Jul-21 21:28N 34°37' E 135°26'5 6.0
2015-Jul-21 20:33N 34°36' E 135°19'1817.6
2015-Jul-21 19:33N 34°37' E 134°58'2 0.1
2015-Jul-20 14:33N 34°36' E 134°56'1919.2
2015-Jul-20 13:33N 34°36' E 135°19'6 5.7
2015-Jul-20 12:32N 34°37' E 135°26'0 0.0
2015-Jul-20 11:32N 34°37' E 135°26'0 0.0
2015-Jul-20 10:32N 34°37' E 135°26'0 0.0
2015-Jul-20 09:32N 34°37' E 135°26'0 0.0
2015-Jul-20 08:32N 34°37' E 135°26'0 0.0
2015-Jul-20 07:32N 34°37' E 135°26'0 0.0
2015-Jul-20 06:32N 34°37' E 135°26'0 0.0
2015-Jul-20 05:32N 34°37' E 135°26'0 0.0
2015-Jul-20 04:26N 34°37' E 135°26'0 0.0
2015-Jul-20 03:32N 34°37' E 135°26'0 0.0
2015-Jul-20 02:32N 34°37' E 135°26'0 0.0
2015-Jul-20 01:32N 34°37' E 135°26'0 0.0
2015-Jul-20 00:32N 34°37' E 135°26'0 0.0
2015-Jul-19 23:26N 34°37' E 135°26'0 0.0
2015-Jul-19 22:32N 34°37' E 135°26'0 0.0
2015-Jul-19 21:32N 34°37' E 135°26'5 5.0
2015-Jul-19 20:33N 34°36' E 135°20'1818.1
2015-Jul-19 19:33N 34°37' E 134°58'8516.9
2015-Jul-19 14:33N 34°07' E 133°22'83 3.5
2015-Jul-18 14:33N 34°37' E 134°56'  

Dump ship's entire track history